Millenium Air

Millenium Air Since 1998



 METAR AND TAF INFORMATION
METAR FOR LGLM
ADDS - METARS form results

(2255 UTC 05 July 2020)
Data provider http://aviationweather.gov/metar/data/
 
Forecast for: LGLM (LIMNOS ISLAND AR, GR)
Text: TAF LGLM 052000Z 0521/0606 04018KT 9999 FEW025
Forecast period: 2100 UTC 05 July 2020 to 0600 UTC 06 July 2020
Forecast type: FROM: standard forecast or significant change
Winds: from the NE (40 degrees) at 21 MPH (18 knots; 9.3 m/s)
Visibility: 6 or more miles 10+ km)
Ceiling: at least 12,000 feet AGL
Clouds: few clouds at 2500 feet AGL
Weather: no significant weather forecast for this period

 AIRPORT MAP

 RUNWAY INFORMATION
Runway 04R Runway length 9895 ft Runway width 148 ft
Runway elevation 13 ft Runway displaced threshold 0 ft Runway heading 43
Runway 22L Runway length 9895 ft Runway width 148 ft
Runway elevation 13 ft Runway displaced threshold 0 ft Runway heading 223

 AIRPORT FREQUENCIES
Type A/G Name RDO Frequency 563.7 MHZ
Type APP Name APP Frequency 122.1 MHZ
Type TWR Name TWR Frequency 122.1 MHZ

 AIRPORT NEAR NAVIGATION AIDS
Type NDB Name Limnos Frequency 429 KHZ
Type TACAN Name Limnos Frequency 114800 KHZ
Type VOR-DME Name Limnos Frequency 109200 KHZ